sensor_id;sensor_type;location;lat;lon;timestamp;temperature;humidity
26952;DHT22;14507;52.418;13.398;2023-05-14T00:00:20;13.60;99.00
26952;DHT22;14507;52.418;13.398;2023-05-14T00:02:45;13.50;99.10
26952;DHT22;14507;52.418;13.398;2023-05-14T00:05:11;13.50;99.10
26952;DHT22;14507;52.418;13.398;2023-05-14T00:07:37;13.50;99.40
26952;DHT22;14507;52.418;13.398;2023-05-14T00:10:02;13.50;99.70
26952;DHT22;14507;52.418;13.398;2023-05-14T00:12:28;13.40;99.90
26952;DHT22;14507;52.418;13.398;2023-05-14T00:14:55;13.40;99.90
26952;DHT22;14507;52.418;13.398;2023-05-14T00:17:21;13.40;99.90
26952;DHT22;14507;52.418;13.398;2023-05-14T00:19:46;13.40;99.90
26952;DHT22;14507;52.418;13.398;2023-05-14T00:22:12;13.30;99.90
26952;DHT22;14507;52.418;13.398;2023-05-14T00:24:37;13.30;99.90
26952;DHT22;14507;52.418;13.398;2023-05-14T00:27:03;13.30;99.90
26952;DHT22;14507;52.418;13.398;2023-05-14T00:29:29;13.30;99.90
26952;DHT22;14507;52.418;13.398;2023-05-14T00:31:54;13.20;99.90
26952;DHT22;14507;52.418;13.398;2023-05-14T00:34:20;13.20;99.90
26952;DHT22;14507;52.418;13.398;2023-05-14T00:36:46;13.20;99.90
26952;DHT22;14507;52.418;13.398;2023-05-14T00:39:12;13.20;99.90
26952;DHT22;14507;52.418;13.398;2023-05-14T00:41:38;13.20;99.90
26952;DHT22;14507;52.418;13.398;2023-05-14T00:44:04;13.20;99.90
26952;DHT22;14507;52.418;13.398;2023-05-14T00:46:30;13.20;99.90
26952;DHT22;14507;52.418;13.398;2023-05-14T00:48:56;13.20;99.90
26952;DHT22;14507;52.418;13.398;2023-05-14T00:51:22;13.10;99.90
26952;DHT22;14507;52.418;13.398;2023-05-14T00:53:49;13.20;99.90
26952;DHT22;14507;52.418;13.398;2023-05-14T00:56:15;13.10;99.90
26952;DHT22;14507;52.418;13.398;2023-05-14T00:58:41;13.10;99.90
26952;DHT22;14507;52.418;13.398;2023-05-14T01:01:08;13.10;99.90
26952;DHT22;14507;52.418;13.398;2023-05-14T01:03:33;13.10;99.90
26952;DHT22;14507;52.418;13.398;2023-05-14T01:09:10;13.10;99.90
26952;DHT22;14507;52.418;13.398;2023-05-14T01:11:57;13.00;99.90
26952;DHT22;14507;52.418;13.398;2023-05-14T01:17:40;13.00;99.90
26952;DHT22;14507;52.418;13.398;2023-05-14T01:20:08;12.90;99.90
26952;DHT22;14507;52.418;13.398;2023-05-14T01:22:34;12.90;99.90
26952;DHT22;14507;52.418;13.398;2023-05-14T01:24:59;12.90;99.90
26952;DHT22;14507;52.418;13.398;2023-05-14T01:30:16;12.80;99.90
26952;DHT22;14507;52.418;13.398;2023-05-14T01:32:46;12.70;99.90
26952;DHT22;14507;52.418;13.398;2023-05-14T01:35:13;12.70;99.90
26952;DHT22;14507;52.418;13.398;2023-05-14T01:37:39;12.70;99.90
26952;DHT22;14507;52.418;13.398;2023-05-14T01:40:07;12.70;99.90
26952;DHT22;14507;52.418;13.398;2023-05-14T01:42:34;12.70;99.90
26952;DHT22;14507;52.418;13.398;2023-05-14T01:45:00;12.60;99.90
26952;DHT22;14507;52.418;13.398;2023-05-14T01:47:26;12.60;99.90
26952;DHT22;14507;52.418;13.398;2023-05-14T01:49:52;12.60;99.90
26952;DHT22;14507;52.418;13.398;2023-05-14T01:52:17;12.60;99.90
26952;DHT22;14507;52.418;13.398;2023-05-14T01:54:48;12.60;99.90
26952;DHT22;14507;52.418;13.398;2023-05-14T01:57:13;12.60;99.90
26952;DHT22;14507;52.418;13.398;2023-05-14T01:59:39;12.60;99.90
26952;DHT22;14507;52.418;13.398;2023-05-14T02:02:05;12.60;99.90
26952;DHT22;14507;52.418;13.398;2023-05-14T02:04:30;12.60;99.90
26952;DHT22;14507;52.418;13.398;2023-05-14T02:06:56;12.60;99.90
26952;DHT22;14507;52.418;13.398;2023-05-14T02:09:21;12.70;99.90
26952;DHT22;14507;52.418;13.398;2023-05-14T02:11:47;12.60;99.90
26952;DHT22;14507;52.418;13.398;2023-05-14T02:14:13;12.60;99.90
26952;DHT22;14507;52.418;13.398;2023-05-14T02:16:39;12.60;99.90
26952;DHT22;14507;52.418;13.398;2023-05-14T02:19:05;12.60;99.90
26952;DHT22;14507;52.418;13.398;2023-05-14T02:21:31;12.60;99.90
26952;DHT22;14507;52.418;13.398;2023-05-14T02:23:57;12.50;99.90
26952;DHT22;14507;52.418;13.398;2023-05-14T02:26:22;12.60;99.90
26952;DHT22;14507;52.418;13.398;2023-05-14T02:28:48;12.60;99.90
26952;DHT22;14507;52.418;13.398;2023-05-14T02:31:13;12.50;99.90
26952;DHT22;14507;52.418;13.398;2023-05-14T02:33:39;12.50;99.90
26952;DHT22;14507;52.418;13.398;2023-05-14T02:36:05;12.50;99.90
26952;DHT22;14507;52.418;13.398;2023-05-14T02:38:30;12.50;99.90
26952;DHT22;14507;52.418;13.398;2023-05-14T02:40:56;12.60;99.90
26952;DHT22;14507;52.418;13.398;2023-05-14T02:43:22;12.60;99.90
26952;DHT22;14507;52.418;13.398;2023-05-14T02:45:47;12.50;99.90
26952;DHT22;14507;52.418;13.398;2023-05-14T02:48:13;12.60;99.90
26952;DHT22;14507;52.418;13.398;2023-05-14T02:50:39;12.60;99.90
26952;DHT22;14507;52.418;13.398;2023-05-14T02:53:04;12.60;99.90
26952;DHT22;14507;52.418;13.398;2023-05-14T02:55:30;12.60;99.90
26952;DHT22;14507;52.418;13.398;2023-05-14T02:57:55;12.60;99.90
26952;DHT22;14507;52.418;13.398;2023-05-14T03:00:21;12.60;99.90
26952;DHT22;14507;52.418;13.398;2023-05-14T03:02:47;12.60;99.90
26952;DHT22;14507;52.418;13.398;2023-05-14T03:05:12;12.60;99.90
26952;DHT22;14507;52.418;13.398;2023-05-14T03:07:38;12.60;99.90
26952;DHT22;14507;52.418;13.398;2023-05-14T03:10:04;12.50;99.90
26952;DHT22;14507;52.418;13.398;2023-05-14T03:12:30;12.50;99.90
26952;DHT22;14507;52.418;13.398;2023-05-14T03:14:56;12.60;99.90
26952;DHT22;14507;52.418;13.398;2023-05-14T03:17:21;12.60;99.90
26952;DHT22;14507;52.418;13.398;2023-05-14T03:19:47;12.60;99.90
26952;DHT22;14507;52.418;13.398;2023-05-14T03:22:13;12.50;99.90
26952;DHT22;14507;52.418;13.398;2023-05-14T03:24:39;12.60;99.90
26952;DHT22;14507;52.418;13.398;2023-05-14T03:27:05;12.60;99.90
26952;DHT22;14507;52.418;13.398;2023-05-14T03:29:30;12.60;99.90
26952;DHT22;14507;52.418;13.398;2023-05-14T03:31:56;12.60;99.90
26952;DHT22;14507;52.418;13.398;2023-05-14T03:34:22;12.60;99.90
26952;DHT22;14507;52.418;13.398;2023-05-14T03:36:48;12.60;99.90
26952;DHT22;14507;52.418;13.398;2023-05-14T03:39:13;12.60;99.90
26952;DHT22;14507;52.418;13.398;2023-05-14T03:41:46;12.60;99.90
26952;DHT22;14507;52.418;13.398;2023-05-14T03:44:12;12.60;99.90
26952;DHT22;14507;52.418;13.398;2023-05-14T03:46:37;12.60;99.90
26952;DHT22;14507;52.418;13.398;2023-05-14T03:49:03;12.70;99.90
26952;DHT22;14507;52.418;13.398;2023-05-14T03:51:28;12.70;99.90
26952;DHT22;14507;52.418;13.398;2023-05-14T03:53:54;12.70;99.90
26952;DHT22;14507;52.418;13.398;2023-05-14T03:56:20;12.70;99.90
26952;DHT22;14507;52.418;13.398;2023-05-14T03:58:46;12.70;99.90
26952;DHT22;14507;52.418;13.398;2023-05-14T04:01:11;12.60;99.90
26952;DHT22;14507;52.418;13.398;2023-05-14T04:03:37;12.60;99.90
26952;DHT22;14507;52.418;13.398;2023-05-14T04:06:03;12.60;99.90
26952;DHT22;14507;52.418;13.398;2023-05-14T04:08:28;12.60;99.90
26952;DHT22;14507;52.418;13.398;2023-05-14T04:10:54;12.60;99.90
26952;DHT22;14507;52.418;13.398;2023-05-14T04:13:20;12.60;99.90
26952;DHT22;14507;52.418;13.398;2023-05-14T04:15:45;12.60;99.90
26952;DHT22;14507;52.418;13.398;2023-05-14T04:18:11;12.60;99.90
26952;DHT22;14507;52.418;13.398;2023-05-14T04:20:37;12.60;99.90
26952;DHT22;14507;52.418;13.398;2023-05-14T04:23:03;12.70;99.90
26952;DHT22;14507;52.418;13.398;2023-05-14T04:25:28;12.70;99.90
26952;DHT22;14507;52.418;13.398;2023-05-14T04:27:54;12.70;99.90
26952;DHT22;14507;52.418;13.398;2023-05-14T04:30:20;12.70;99.90
26952;DHT22;14507;52.418;13.398;2023-05-14T04:32:46;12.80;99.90
26952;DHT22;14507;52.418;13.398;2023-05-14T04:35:11;12.80;99.90
26952;DHT22;14507;52.418;13.398;2023-05-14T04:37:37;13.00;99.90
26952;DHT22;14507;52.418;13.398;2023-05-14T04:40:08;13.10;99.90
26952;DHT22;14507;52.418;13.398;2023-05-14T04:42:35;13.30;99.90
26952;DHT22;14507;52.418;13.398;2023-05-14T04:45:01;13.60;99.90
26952;DHT22;14507;52.418;13.398;2023-05-14T04:47:29;14.00;99.90
26952;DHT22;14507;52.418;13.398;2023-05-14T04:49:55;14.50;99.90
26952;DHT22;14507;52.418;13.398;2023-05-14T04:52:22;14.80;99.90
26952;DHT22;14507;52.418;13.398;2023-05-14T04:54:48;15.20;98.70
26952;DHT22;14507;52.418;13.398;2023-05-14T04:57:14;15.60;98.00
26952;DHT22;14507;52.418;13.398;2023-05-14T04:59:39;16.00;97.10
26952;DHT22;14507;52.418;13.398;2023-05-14T05:02:05;16.40;96.30
26952;DHT22;14507;52.418;13.398;2023-05-14T05:04:31;16.70;94.90
26952;DHT22;14507;52.418;13.398;2023-05-14T05:06:56;17.00;94.50
26952;DHT22;14507;52.418;13.398;2023-05-14T05:09:22;17.00;93.50
26952;DHT22;14507;52.418;13.398;2023-05-14T05:11:47;17.10;93.00
26952;DHT22;14507;52.418;13.398;2023-05-14T05:14:13;16.90;93.40
26952;DHT22;14507;52.418;13.398;2023-05-14T05:16:39;16.70;93.80
26952;DHT22;14507;52.418;13.398;2023-05-14T05:19:04;16.40;94.20
26952;DHT22;14507;52.418;13.398;2023-05-14T05:21:30;16.10;94.00
26952;DHT22;14507;52.418;13.398;2023-05-14T05:23:56;15.80;94.40
26952;DHT22;14507;52.418;13.398;2023-05-14T05:26:21;15.60;94.80
26952;DHT22;14507;52.418;13.398;2023-05-14T05:28:47;15.30;95.10
26952;DHT22;14507;52.418;13.398;2023-05-14T05:31:13;15.10;95.40
26952;DHT22;14507;52.418;13.398;2023-05-14T05:33:38;15.00;96.00
26952;DHT22;14507;52.418;13.398;2023-05-14T05:36:04;14.90;95.90
26952;DHT22;14507;52.418;13.398;2023-05-14T05:38:30;14.80;96.20
26952;DHT22;14507;52.418;13.398;2023-05-14T05:40:56;14.80;96.40
26952;DHT22;14507;52.418;13.398;2023-05-14T05:43:21;14.80;96.50
26952;DHT22;14507;52.418;13.398;2023-05-14T05:45:47;14.80;96.40
26952;DHT22;14507;52.418;13.398;2023-05-14T05:48:13;14.80;96.40
26952;DHT22;14507;52.418;13.398;2023-05-14T05:50:38;14.90;96.40
26952;DHT22;14507;52.418;13.398;2023-05-14T05:53:04;14.90;95.80
26952;DHT22;14507;52.418;13.398;2023-05-14T05:55:29;14.90;95.90
26952;DHT22;14507;52.418;13.398;2023-05-14T05:57:55;14.90;95.70
26952;DHT22;14507;52.418;13.398;2023-05-14T06:00:21;14.90;95.70
26952;DHT22;14507;52.418;13.398;2023-05-14T06:02:47;14.90;95.40
26952;DHT22;14507;52.418;13.398;2023-05-14T06:05:13;15.00;95.80
26952;DHT22;14507;52.418;13.398;2023-05-14T06:07:39;15.00;95.50
26952;DHT22;14507;52.418;13.398;2023-05-14T06:10:05;15.10;95.20
26952;DHT22;14507;52.418;13.398;2023-05-14T06:12:31;15.30;94.90
26952;DHT22;14507;52.418;13.398;2023-05-14T06:14:56;15.40;94.40
26952;DHT22;14507;52.418;13.398;2023-05-14T06:17:23;15.40;94.50
26952;DHT22;14507;52.418;13.398;2023-05-14T06:19:49;15.40;94.60
26952;DHT22;14507;52.418;13.398;2023-05-14T06:22:15;15.40;94.00
26952;DHT22;14507;52.418;13.398;2023-05-14T06:24:41;15.40;94.00
26952;DHT22;14507;52.418;13.398;2023-05-14T06:27:06;15.40;93.90
26952;DHT22;14507;52.418;13.398;2023-05-14T06:29:32;15.40;94.00
26952;DHT22;14507;52.418;13.398;2023-05-14T06:32:01;15.40;93.90
26952;DHT22;14507;52.418;13.398;2023-05-14T06:34:28;15.40;93.60
26952;DHT22;14507;52.418;13.398;2023-05-14T06:36:54;15.50;93.60
26952;DHT22;14507;52.418;13.398;2023-05-14T06:39:19;15.60;93.40
26952;DHT22;14507;52.418;13.398;2023-05-14T06:41:45;15.70;93.20
26952;DHT22;14507;52.418;13.398;2023-05-14T06:44:11;15.70;92.90
26952;DHT22;14507;52.418;13.398;2023-05-14T06:46:36;15.80;92.90
26952;DHT22;14507;52.418;13.398;2023-05-14T06:49:02;15.80;93.00
26952;DHT22;14507;52.418;13.398;2023-05-14T06:51:28;15.90;93.40
26952;DHT22;14507;52.418;13.398;2023-05-14T06:53:54;16.00;92.90
26952;DHT22;14507;52.418;13.398;2023-05-14T06:56:21;16.10;92.60
26952;DHT22;14507;52.418;13.398;2023-05-14T06:58:47;16.20;92.30
26952;DHT22;14507;52.418;13.398;2023-05-14T07:01:12;16.30;91.80
26952;DHT22;14507;52.418;13.398;2023-05-14T07:03:38;16.40;91.20
26952;DHT22;14507;52.418;13.398;2023-05-14T07:06:04;16.40;91.40
26952;DHT22;14507;52.418;13.398;2023-05-14T07:08:31;16.50;91.30
26952;DHT22;14507;52.418;13.398;2023-05-14T07:10:56;16.60;91.10
26952;DHT22;14507;52.418;13.398;2023-05-14T07:13:22;16.60;91.20
26952;DHT22;14507;52.418;13.398;2023-05-14T07:15:48;16.60;90.90
26952;DHT22;14507;52.418;13.398;2023-05-14T07:18:14;16.70;90.30
26952;DHT22;14507;52.418;13.398;2023-05-14T07:20:39;16.80;90.70
26952;DHT22;14507;52.418;13.398;2023-05-14T07:23:05;16.90;90.90
26952;DHT22;14507;52.418;13.398;2023-05-14T07:25:31;17.00;90.60
26952;DHT22;14507;52.418;13.398;2023-05-14T07:27:57;17.20;90.60
26952;DHT22;14507;52.418;13.398;2023-05-14T07:30:22;17.40;90.20
26952;DHT22;14507;52.418;13.398;2023-05-14T07:32:48;17.60;90.80
26952;DHT22;14507;52.418;13.398;2023-05-14T07:35:14;17.80;90.60
26952;DHT22;14507;52.418;13.398;2023-05-14T07:37:42;18.00;87.10
26952;DHT22;14507;52.418;13.398;2023-05-14T07:40:08;18.20;86.50
26952;DHT22;14507;52.418;13.398;2023-05-14T07:42:34;18.30;86.80
26952;DHT22;14507;52.418;13.398;2023-05-14T07:45:00;18.50;85.70
26952;DHT22;14507;52.418;13.398;2023-05-14T07:47:25;18.60;85.10
26952;DHT22;14507;52.418;13.398;2023-05-14T07:49:55;18.70;86.00
26952;DHT22;14507;52.418;13.398;2023-05-14T07:52:21;18.80;87.10
26952;DHT22;14507;52.418;13.398;2023-05-14T07:54:47;19.00;85.20
26952;DHT22;14507;52.418;13.398;2023-05-14T07:57:12;19.30;84.50
26952;DHT22;14507;52.418;13.398;2023-05-14T07:59:38;19.50;82.60
26952;DHT22;14507;52.418;13.398;2023-05-14T08:02:04;19.60;82.60
26952;DHT22;14507;52.418;13.398;2023-05-14T08:04:29;19.70;81.40
26952;DHT22;14507;52.418;13.398;2023-05-14T08:06:55;19.80;82.00
26952;DHT22;14507;52.418;13.398;2023-05-14T08:09:22;20.10;82.10
26952;DHT22;14507;52.418;13.398;2023-05-14T08:11:48;20.50;81.60
26952;DHT22;14507;52.418;13.398;2023-05-14T08:14:14;21.00;77.20
26952;DHT22;14507;52.418;13.398;2023-05-14T08:16:39;21.40;75.60
26952;DHT22;14507;52.418;13.398;2023-05-14T08:19:05;21.60;75.50
26952;DHT22;14507;52.418;13.398;2023-05-14T08:21:31;21.60;75.20
26952;DHT22;14507;52.418;13.398;2023-05-14T08:23:57;21.80;75.50
26952;DHT22;14507;52.418;13.398;2023-05-14T08:26:22;21.90;74.20
26952;DHT22;14507;52.418;13.398;2023-05-14T08:28:48;21.70;74.90
26952;DHT22;14507;52.418;13.398;2023-05-14T08:31:14;21.90;73.60
26952;DHT22;14507;52.418;13.398;2023-05-14T08:33:39;21.90;72.20
26952;DHT22;14507;52.418;13.398;2023-05-14T08:36:06;21.90;72.50
26952;DHT22;14507;52.418;13.398;2023-05-14T08:38:32;22.00;71.20
26952;DHT22;14507;52.418;13.398;2023-05-14T08:40:58;21.90;73.20
26952;DHT22;14507;52.418;13.398;2023-05-14T08:43:43;22.00;72.80
26952;DHT22;14507;52.418;13.398;2023-05-14T08:46:11;22.20;71.40
26952;DHT22;14507;52.418;13.398;2023-05-14T08:48:41;22.30;70.30
26952;DHT22;14507;52.418;13.398;2023-05-14T08:51:08;22.40;71.50
26952;DHT22;14507;52.418;13.398;2023-05-14T08:53:33;22.60;73.20
26952;DHT22;14507;52.418;13.398;2023-05-14T08:56:00;22.80;70.30
26952;DHT22;14507;52.418;13.398;2023-05-14T08:58:27;22.90;71.60
26952;DHT22;14507;52.418;13.398;2023-05-14T09:00:53;23.00;67.10
26952;DHT22;14507;52.418;13.398;2023-05-14T09:05:47;23.30;65.10
26952;DHT22;14507;52.418;13.398;2023-05-14T09:08:13;23.60;67.30
26952;DHT22;14507;52.418;13.398;2023-05-14T09:10:39;24.00;67.40
26952;DHT22;14507;52.418;13.398;2023-05-14T09:13:05;24.00;64.30
26952;DHT22;14507;52.418;13.398;2023-05-14T09:15:32;23.60;63.60
26952;DHT22;14507;52.418;13.398;2023-05-14T09:17:59;23.70;64.60
26952;DHT22;14507;52.418;13.398;2023-05-14T09:20:25;23.90;64.30
26952;DHT22;14507;52.418;13.398;2023-05-14T09:22:53;24.10;64.00
26952;DHT22;14507;52.418;13.398;2023-05-14T09:25:19;24.10;66.30
26952;DHT22;14507;52.418;13.398;2023-05-14T09:27:46;24.20;65.20
26952;DHT22;14507;52.418;13.398;2023-05-14T09:30:16;24.60;66.90
26952;DHT22;14507;52.418;13.398;2023-05-14T09:32:42;24.90;63.20
26952;DHT22;14507;52.418;13.398;2023-05-14T09:35:17;24.80;59.90
26952;DHT22;14507;52.418;13.398;2023-05-14T09:37:45;24.60;62.00
26952;DHT22;14507;52.418;13.398;2023-05-14T09:40:11;24.60;60.10
26952;DHT22;14507;52.418;13.398;2023-05-14T09:42:37;24.20;59.20
26952;DHT22;14507;52.418;13.398;2023-05-14T09:45:03;23.90;60.70
26952;DHT22;14507;52.418;13.398;2023-05-14T09:47:29;23.70;59.60
26952;DHT22;14507;52.418;13.398;2023-05-14T09:49:56;23.50;62.80
26952;DHT22;14507;52.418;13.398;2023-05-14T09:52:25;23.40;61.20
26952;DHT22;14507;52.418;13.398;2023-05-14T09:54:52;23.10;60.80
26952;DHT22;14507;52.418;13.398;2023-05-14T09:57:18;22.90;61.80
26952;DHT22;14507;52.418;13.398;2023-05-14T09:59:44;22.50;61.60
26952;DHT22;14507;52.418;13.398;2023-05-14T10:04:52;21.80;62.90
26952;DHT22;14507;52.418;13.398;2023-05-14T10:07:21;21.60;63.90
26952;DHT22;14507;52.418;13.398;2023-05-14T10:09:48;21.60;64.30
26952;DHT22;14507;52.418;13.398;2023-05-14T10:12:20;21.50;64.70
26952;DHT22;14507;52.418;13.398;2023-05-14T10:14:47;21.40;63.60
26952;DHT22;14507;52.418;13.398;2023-05-14T10:17:20;21.30;63.90
26952;DHT22;14507;52.418;13.398;2023-05-14T10:19:51;21.30;64.40
26952;DHT22;14507;52.418;13.398;2023-05-14T10:22:21;21.30;64.40
26952;DHT22;14507;52.418;13.398;2023-05-14T10:24:48;21.20;62.60
26952;DHT22;14507;52.418;13.398;2023-05-14T10:27:20;21.00;64.10
26952;DHT22;14507;52.418;13.398;2023-05-14T10:29:55;20.90;65.10
26952;DHT22;14507;52.418;13.398;2023-05-14T10:32:22;20.80;63.40
26952;DHT22;14507;52.418;13.398;2023-05-14T10:34:50;20.70;63.70
26952;DHT22;14507;52.418;13.398;2023-05-14T10:39:57;20.60;65.30
26952;DHT22;14507;52.418;13.398;2023-05-14T10:42:30;20.60;65.20
26952;DHT22;14507;52.418;13.398;2023-05-14T10:45:04;20.50;65.30
26952;DHT22;14507;52.418;13.398;2023-05-14T10:47:32;20.40;66.90
26952;DHT22;14507;52.418;13.398;2023-05-14T10:50:01;20.50;68.00
26952;DHT22;14507;52.418;13.398;2023-05-14T10:52:28;20.50;67.90
26952;DHT22;14507;52.418;13.398;2023-05-14T10:54:56;20.50;65.70
26952;DHT22;14507;52.418;13.398;2023-05-14T10:57:24;20.50;66.60
26952;DHT22;14507;52.418;13.398;2023-05-14T10:59:55;20.50;67.80
26952;DHT22;14507;52.418;13.398;2023-05-14T11:02:26;20.50;66.80
26952;DHT22;14507;52.418;13.398;2023-05-14T11:04:57;20.50;67.30
26952;DHT22;14507;52.418;13.398;2023-05-14T11:07:29;20.50;67.90
26952;DHT22;14507;52.418;13.398;2023-05-14T11:10:06;20.50;65.70
26952;DHT22;14507;52.418;13.398;2023-05-14T11:12:37;20.40;66.50
26952;DHT22;14507;52.418;13.398;2023-05-14T11:15:06;20.40;67.10
26952;DHT22;14507;52.418;13.398;2023-05-14T11:17:35;20.30;68.30
26952;DHT22;14507;52.418;13.398;2023-05-14T11:20:01;20.30;67.70
26952;DHT22;14507;52.418;13.398;2023-05-14T11:22:27;20.30;67.10
26952;DHT22;14507;52.418;13.398;2023-05-14T11:24:53;20.20;66.00
26952;DHT22;14507;52.418;13.398;2023-05-14T11:27:20;20.10;66.60
26952;DHT22;14507;52.418;13.398;2023-05-14T11:29:47;20.00;66.80
26952;DHT22;14507;52.418;13.398;2023-05-14T11:32:14;20.00;67.90
26952;DHT22;14507;52.418;13.398;2023-05-14T11:34:41;20.10;66.70
26952;DHT22;14507;52.418;13.398;2023-05-14T11:37:09;20.20;66.60
26952;DHT22;14507;52.418;13.398;2023-05-14T11:39:35;20.20;66.40
26952;DHT22;14507;52.418;13.398;2023-05-14T11:42:10;20.40;67.20
26952;DHT22;14507;52.418;13.398;2023-05-14T11:44:41;20.40;66.60
26952;DHT22;14507;52.418;13.398;2023-05-14T11:47:09;20.40;66.40
26952;DHT22;14507;52.418;13.398;2023-05-14T11:49:35;20.40;66.80
26952;DHT22;14507;52.418;13.398;2023-05-14T11:52:04;20.50;68.30
26952;DHT22;14507;52.418;13.398;2023-05-14T11:54:31;20.60;67.70
26952;DHT22;14507;52.418;13.398;2023-05-14T11:56:59;20.50;67.40
26952;DHT22;14507;52.418;13.398;2023-05-14T11:59:29;20.50;67.20
26952;DHT22;14507;52.418;13.398;2023-05-14T12:01:58;20.40;67.60
26952;DHT22;14507;52.418;13.398;2023-05-14T12:04:24;20.40;68.80
26952;DHT22;14507;52.418;13.398;2023-05-14T12:06:51;20.40;68.60
26952;DHT22;14507;52.418;13.398;2023-05-14T12:09:18;20.40;68.90
26952;DHT22;14507;52.418;13.398;2023-05-14T12:11:45;20.40;68.60
26952;DHT22;14507;52.418;13.398;2023-05-14T12:14:14;20.40;68.40
26952;DHT22;14507;52.418;13.398;2023-05-14T12:16:41;20.40;68.60
26952;DHT22;14507;52.418;13.398;2023-05-14T12:19:08;20.50;68.80
26952;DHT22;14507;52.418;13.398;2023-05-14T12:21:35;20.60;68.90
26952;DHT22;14507;52.418;13.398;2023-05-14T12:24:01;20.70;68.90
26952;DHT22;14507;52.418;13.398;2023-05-14T12:26:26;20.90;68.10
26952;DHT22;14507;52.418;13.398;2023-05-14T12:28:59;21.00;68.90
26952;DHT22;14507;52.418;13.398;2023-05-14T12:31:35;21.00;65.80
26952;DHT22;14507;52.418;13.398;2023-05-14T12:34:04;21.10;66.50
26952;DHT22;14507;52.418;13.398;2023-05-14T12:36:30;21.10;65.90
26952;DHT22;14507;52.418;13.398;2023-05-14T12:39:01;21.10;67.20
26952;DHT22;14507;52.418;13.398;2023-05-14T12:41:31;21.20;63.90
26952;DHT22;14507;52.418;13.398;2023-05-14T12:43:58;21.30;64.40
26952;DHT22;14507;52.418;13.398;2023-05-14T12:46:25;21.30;64.70
26952;DHT22;14507;52.418;13.398;2023-05-14T12:48:54;21.30;65.30
26952;DHT22;14507;52.418;13.398;2023-05-14T12:51:20;21.30;63.30
26952;DHT22;14507;52.418;13.398;2023-05-14T12:53:46;21.20;63.10
26952;DHT22;14507;52.418;13.398;2023-05-14T12:56:12;21.20;63.50
26952;DHT22;14507;52.418;13.398;2023-05-14T12:58:38;21.20;63.90
26952;DHT22;14507;52.418;13.398;2023-05-14T13:01:04;21.20;63.50
26952;DHT22;14507;52.418;13.398;2023-05-14T13:03:30;21.20;63.90
26952;DHT22;14507;52.418;13.398;2023-05-14T13:05:56;21.10;64.20
26952;DHT22;14507;52.418;13.398;2023-05-14T13:08:22;21.00;64.60
26952;DHT22;14507;52.418;13.398;2023-05-14T13:10:51;21.00;64.30
26952;DHT22;14507;52.418;13.398;2023-05-14T13:13:16;20.90;63.80
26952;DHT22;14507;52.418;13.398;2023-05-14T13:15:42;20.90;64.00
26952;DHT22;14507;52.418;13.398;2023-05-14T13:18:08;20.90;63.90
26952;DHT22;14507;52.418;13.398;2023-05-14T13:20:34;20.90;63.80
26952;DHT22;14507;52.418;13.398;2023-05-14T13:22:59;20.90;64.00
26952;DHT22;14507;52.418;13.398;2023-05-14T13:25:25;20.90;63.40
26952;DHT22;14507;52.418;13.398;2023-05-14T13:27:51;21.00;64.70
26952;DHT22;14507;52.418;13.398;2023-05-14T13:30:17;21.10;64.80
26952;DHT22;14507;52.418;13.398;2023-05-14T13:32:43;21.20;64.20
26952;DHT22;14507;52.418;13.398;2023-05-14T13:35:09;21.20;63.60
26952;DHT22;14507;52.418;13.398;2023-05-14T13:37:35;21.10;63.40
26952;DHT22;14507;52.418;13.398;2023-05-14T13:40:00;21.00;63.90
26952;DHT22;14507;52.418;13.398;2023-05-14T13:42:26;20.90;64.10
26952;DHT22;14507;52.418;13.398;2023-05-14T13:44:52;20.80;63.60
26952;DHT22;14507;52.418;13.398;2023-05-14T13:47:17;20.70;63.90
26952;DHT22;14507;52.418;13.398;2023-05-14T13:49:43;20.60;64.70
26952;DHT22;14507;52.418;13.398;2023-05-14T13:52:08;20.50;64.00
26952;DHT22;14507;52.418;13.398;2023-05-14T13:54:34;20.50;64.70
26952;DHT22;14507;52.418;13.398;2023-05-14T13:57:00;20.50;64.50
26952;DHT22;14507;52.418;13.398;2023-05-14T13:59:26;20.40;64.40
26952;DHT22;14507;52.418;13.398;2023-05-14T14:01:52;20.40;64.20
26952;DHT22;14507;52.418;13.398;2023-05-14T14:04:18;20.40;64.50
26952;DHT22;14507;52.418;13.398;2023-05-14T14:06:44;20.40;65.20
26952;DHT22;14507;52.418;13.398;2023-05-14T14:09:09;20.40;64.40
26952;DHT22;14507;52.418;13.398;2023-05-14T14:11:37;20.40;64.20
26952;DHT22;14507;52.418;13.398;2023-05-14T14:14:03;20.40;64.00
26952;DHT22;14507;52.418;13.398;2023-05-14T14:16:29;20.40;63.70
26952;DHT22;14507;52.418;13.398;2023-05-14T14:18:54;20.40;63.60
26952;DHT22;14507;52.418;13.398;2023-05-14T14:21:21;20.50;64.20
26952;DHT22;14507;52.418;13.398;2023-05-14T14:23:47;20.50;63.40
26952;DHT22;14507;52.418;13.398;2023-05-14T14:26:13;20.50;63.60
26952;DHT22;14507;52.418;13.398;2023-05-14T14:28:38;20.50;63.50
26952;DHT22;14507;52.418;13.398;2023-05-14T14:31:05;20.60;63.40
26952;DHT22;14507;52.418;13.398;2023-05-14T14:33:30;20.70;63.40
26952;DHT22;14507;52.418;13.398;2023-05-14T14:35:56;20.70;62.30
26952;DHT22;14507;52.418;13.398;2023-05-14T14:38:23;20.70;62.50
26952;DHT22;14507;52.418;13.398;2023-05-14T14:40:49;20.80;62.80
26952;DHT22;14507;52.418;13.398;2023-05-14T14:43:15;20.90;63.10
26952;DHT22;14507;52.418;13.398;2023-05-14T14:45:41;20.90;62.00
26952;DHT22;14507;52.418;13.398;2023-05-14T14:48:26;21.00;62.60
26952;DHT22;14507;52.418;13.398;2023-05-14T14:50:53;21.00;62.20
26952;DHT22;14507;52.418;13.398;2023-05-14T14:53:20;21.10;62.30
26952;DHT22;14507;52.418;13.398;2023-05-14T14:55:49;21.20;62.60
26952;DHT22;14507;52.418;13.398;2023-05-14T14:58:16;21.20;62.60
26952;DHT22;14507;52.418;13.398;2023-05-14T15:00:42;21.30;61.30
26952;DHT22;14507;52.418;13.398;2023-05-14T15:03:08;21.30;62.20
26952;DHT22;14507;52.418;13.398;2023-05-14T15:05:34;21.40;63.40
26952;DHT22;14507;52.418;13.398;2023-05-14T15:08:00;21.40;63.60
26952;DHT22;14507;52.418;13.398;2023-05-14T15:10:27;21.50;63.00
26952;DHT22;14507;52.418;13.398;2023-05-14T15:12:55;21.60;64.20
26952;DHT22;14507;52.418;13.398;2023-05-14T15:15:21;21.60;62.90
26952;DHT22;14507;52.418;13.398;2023-05-14T15:17:46;21.60;63.00
26952;DHT22;14507;52.418;13.398;2023-05-14T15:20:12;21.70;63.50
26952;DHT22;14507;52.418;13.398;2023-05-14T15:22:38;21.80;61.00
26952;DHT22;14507;52.418;13.398;2023-05-14T15:25:04;21.80;63.10
26952;DHT22;14507;52.418;13.398;2023-05-14T15:27:29;21.80;62.70